Карточка аэропорта UAKK

Внимание!
Информация на этой странице в стадии наполнения.
Если вы не увидели какой-то информации, или заметили неточность - пожалуйста сообщите нам!
Спасибо!
Команда RU-STAFF
Название аэропортаКараганда
Название аэропорта (англ.)Karaganda
Превышение1768 ft. (538.9 m.)
Координаты49°40.302', 73°20.118'
Высота перехода10000ft
Эшелон переходаFL120, QNH<733:FL130
Коды ответчика0630-0637, 7220-7227
Зона ОрВДАстана РПИ (UACN)
Данные METARUAKK 241900Z 13002MPS 9999 FEW049 15/11 Q1006 NOSIG RMK QFE708/0944
Проноз погоды (TAF)UAKK 241703Z 2418/2518 23003MPS 9999 SCT040 BKN100 TX28/2510Z TN16/2423Z TEMPO 2418/2503 18003MPS SCT030CB BECMG 2503/2505 24008MPS TEMPO 2503/2512 26013MPS SCT030CB
NOTAMshow/hide NOTAM
AWOS   TABLE

Информация о ВПП

ВПП Длина ВПП (м.) Покрытие Курс ВПП Частота ILS
053601Железобетон50109.9
233601Железобетон230111.7

Диспетчерские позиции




Спутниковое изображение